Tenerife Norte-Ciudad de La Laguna Airport

GCXO · Santa Cruz de Tenerife, 加那利群岛, 西班牙

罗盘
风向 的 Tenerife Norte Airport 12/30
风: 1 kt, 1 beaufort


1 kt
改变
0 ft 1.000 2.000 3.000 4.000 5.000
CAVOK
METAR GCXO 190830Z VRB01KT CAVOK 28/M05 Q1021 NOSIG

METAR Tenerife Norte Airport - GCXO/TFN

Tenerife Norte Airport是,西班牙中的中型机场。 该机场位于纬度28,48270和经度-16,34150。 该机场有一条跑道: 12/30. 本场的ICAO机场代码为GCXO。 该机场的IATA代码为TFN。 机场在Canarias FIR中。

该航空气象观测是针对Tenerife Norte Airport在2024年7月19日 09:30, 当地时间进行的。

机场观察

可变方向的风很小或没有风。

天气为CAVOK。这意味着在5.000 ft或MSA(最低安全高度)以下(以较高者为准)以下没有云。这也意味着没有观测到积雨云或高耸的积云,可见度为10 km 或者更多或更高。此外,不会有雾,降雨或其他重要天气。

温度和风寒是28 °C。 露点为-5 °C,相对湿度为11%。 海平面上的气压为1021 hPa (QNH)。

白天

今天,太阳从07:20升起,在21:03降落。 这适用于Tenerife Norte Airport,世界夏令时可能有所不同。 当地时间与世界标准时间之间的时差为+1 小时。 夏令时目前正在进行中。

公司介绍

在这个机场,你可以找到飞行学校。 本场上唯一已知的公司是Real Aeroclub De Tenerife。 您是否想在太阳海岸购买房屋或其他不动产,请查看Van den Boom Real Estate, 太阳海岸房地产中介

体会

到Vliegles.nl去找飞行课程,跳伞和其他飞行体验。 浏览页面,了解Tenerife Norte Airport附近所有可用的活动。 你也可以使用搜索功能来寻找你所在地附近的特定飞行课程、跳伞或其他飞行体验。

跑道

Id 标题 侧风 逆风 侧风 %
12/30 111°-291° 93 %

逆风成分最大的方向会被突出显示,并用于横风计算。 这并不一定意味着这个方向在使用。

温度 & 天气

温度 28 °C
露点 -5 °C
相对湿度 11%
Kp-index 1 (0-9)

白天

日出
07:20
中午
14:11
日落
21:03 (11:16)

小工具

你想在你的网站上有一个关于Tenerife Norte Airport的当前航空天气(METAR)的小部件吗?

显示HTML代码
报告变更